createdAt,value
2022-12-16T00:00:12.017Z,5.20
2022-12-16T00:01:12.059Z,3.80
2022-12-16T00:02:12.043Z,5.00
2022-12-16T00:03:11.984Z,4.90
2022-12-16T00:04:11.957Z,4.70
2022-12-16T00:05:11.959Z,5.80
2022-12-16T00:06:11.928Z,5.20
2022-12-16T00:07:11.932Z,4.80
2022-12-16T00:08:11.906Z,5.90
2022-12-16T00:09:11.896Z,4.80
2022-12-16T00:10:11.900Z,5.50
2022-12-16T00:11:11.894Z,6.10
2022-12-16T00:12:11.873Z,5.00
2022-12-16T00:13:11.846Z,5.80
2022-12-16T00:14:11.849Z,5.40
2022-12-16T00:15:11.848Z,4.30
2022-12-16T00:16:11.942Z,5.00
2022-12-16T00:17:11.817Z,5.70
2022-12-16T00:18:11.813Z,5.20
2022-12-16T00:19:11.795Z,4.40
2022-12-16T00:20:11.776Z,5.20
2022-12-16T00:21:11.797Z,5.10
2022-12-16T00:22:11.764Z,4.20
2022-12-16T00:23:11.752Z,5.10
2022-12-16T00:24:11.743Z,4.30
2022-12-16T00:25:11.740Z,4.90
2022-12-16T00:26:11.760Z,4.60
2022-12-16T00:27:11.723Z,3.00
2022-12-16T00:28:11.697Z,5.30
2022-12-16T00:29:11.678Z,4.60
2022-12-16T00:30:11.670Z,4.60
2022-12-16T00:31:11.812Z,4.00
2022-12-16T00:32:11.678Z,6.00
2022-12-16T00:33:11.655Z,5.20
2022-12-16T00:34:11.638Z,3.20
2022-12-16T00:35:11.611Z,3.80
2022-12-16T00:36:11.639Z,4.90
2022-12-16T00:37:11.604Z,4.60
2022-12-16T00:38:11.582Z,3.40
2022-12-16T00:39:11.588Z,5.10
2022-12-16T00:40:11.561Z,4.10
2022-12-16T00:41:11.567Z,4.30
2022-12-16T00:42:11.555Z,4.30
2022-12-16T00:43:11.555Z,5.90
2022-12-16T00:44:11.550Z,4.50
2022-12-16T00:45:11.516Z,5.70
2022-12-16T00:46:11.624Z,5.20
2022-12-16T00:47:11.507Z,4.50
2022-12-16T00:48:11.505Z,4.10
2022-12-16T00:49:11.482Z,4.30
2022-12-16T00:50:11.461Z,5.10
2022-12-16T00:51:11.459Z,3.30
2022-12-16T00:52:11.441Z,4.20
2022-12-16T00:53:11.431Z,5.00
2022-12-16T00:54:11.422Z,3.40
2022-12-16T00:55:11.412Z,3.60
2022-12-16T00:56:11.397Z,3.60
2022-12-16T00:57:11.381Z,4.30
2022-12-16T00:58:11.394Z,4.00
2022-12-16T00:59:11.369Z,4.20
2022-12-16T01:00:11.368Z,5.50
2022-12-16T01:01:11.492Z,5.00
2022-12-16T01:02:11.550Z,4.00
2022-12-16T01:03:14.358Z,3.60
2022-12-16T01:04:12.330Z,2.60
2022-12-16T01:05:11.323Z,2.90
2022-12-16T01:06:11.295Z,3.30
2022-12-16T01:07:11.270Z,5.30
2022-12-16T01:08:11.273Z,3.60
2022-12-16T01:09:11.250Z,5.50
2022-12-16T01:10:11.254Z,4.70
2022-12-16T01:11:11.235Z,4.70
2022-12-16T01:12:11.233Z,4.30
2022-12-16T01:13:11.265Z,4.60
2022-12-16T01:14:11.217Z,4.90
2022-12-16T01:15:11.203Z,4.80
2022-12-16T01:16:11.275Z,4.90
2022-12-16T01:17:11.177Z,3.70
2022-12-16T01:18:11.183Z,4.40
2022-12-16T01:19:11.178Z,3.30
2022-12-16T01:20:11.176Z,4.20
2022-12-16T01:21:11.130Z,3.90
2022-12-16T01:22:11.118Z,5.40
2022-12-16T01:23:11.120Z,4.60
2022-12-16T01:24:11.106Z,3.80
2022-12-16T01:25:11.083Z,5.40
2022-12-16T01:26:11.083Z,4.50
2022-12-16T01:27:11.058Z,4.50
2022-12-16T01:28:11.058Z,4.40
2022-12-16T01:29:11.061Z,5.00
2022-12-16T01:30:11.025Z,4.90
2022-12-16T01:31:11.169Z,3.70
2022-12-16T01:32:11.061Z,4.60
2022-12-16T01:33:11.009Z,4.50
2022-12-16T01:34:11.010Z,3.60
2022-12-16T01:35:43.811Z,6.50
2022-12-16T01:36:12.012Z,3.60
2022-12-16T01:37:10.967Z,4.70
2022-12-16T01:38:10.971Z,3.80
2022-12-16T01:39:10.949Z,5.10
2022-12-16T01:40:10.946Z,3.00
2022-12-16T01:41:10.952Z,2.80
2022-12-16T01:42:10.919Z,4.10
2022-12-16T01:43:10.901Z,3.00
2022-12-16T01:44:10.893Z,3.10
2022-12-16T01:45:10.884Z,4.90
2022-12-16T01:46:10.968Z,4.80
2022-12-16T01:47:10.866Z,4.80
2022-12-16T01:48:10.842Z,3.30
2022-12-16T01:49:10.845Z,3.90
2022-12-16T01:50:10.848Z,3.90
2022-12-16T01:51:10.820Z,3.30
2022-12-16T01:52:10.832Z,4.10
2022-12-16T01:53:10.797Z,3.10
2022-12-16T01:55:34.721Z,6.50
2022-12-16T01:56:20.093Z,3.30
2022-12-16T01:57:20.082Z,4.00
2022-12-16T01:58:20.104Z,2.90
2022-12-16T01:59:20.079Z,5.00
2022-12-16T02:00:20.065Z,2.50
2022-12-16T02:01:20.267Z,2.90
2022-12-16T02:02:20.198Z,2.90
2022-12-16T02:03:20.171Z,4.20
2022-12-16T02:04:20.027Z,4.10
2022-12-16T02:05:20.012Z,3.70
2022-12-16T02:06:20.004Z,5.70
2022-12-16T02:07:20.017Z,3.90
2022-12-16T02:08:19.982Z,2.90
2022-12-16T02:09:19.990Z,3.10
2022-12-16T02:13:47.721Z,7.40
2022-12-16T02:14:47.710Z,4.20
2022-12-16T02:15:47.673Z,4.10
2022-12-16T02:16:47.857Z,3.50
2022-12-16T02:17:47.656Z,3.90
2022-12-16T02:18:47.636Z,2.00
2022-12-16T02:19:47.647Z,2.40
2022-12-16T02:20:47.646Z,3.50
2022-12-16T02:21:47.608Z,2.50
2022-12-16T02:22:47.633Z,3.00
2022-12-16T02:23:47.604Z,4.20
2022-12-16T02:24:47.566Z,2.80
2022-12-16T02:25:47.567Z,4.30
2022-12-16T02:26:47.560Z,3.40
2022-12-16T02:29:03.640Z,4.70
2022-12-16T02:29:56.805Z,2.90
2022-12-16T02:30:56.819Z,3.80
2022-12-16T02:31:56.793Z,2.00
2022-12-16T02:32:56.807Z,3.60
2022-12-16T02:33:56.772Z,4.20
2022-12-16T02:34:56.779Z,3.50
2022-12-16T02:35:56.750Z,3.00
2022-12-16T02:36:56.727Z,2.80
2022-12-16T02:37:56.747Z,3.40
2022-12-16T02:38:56.733Z,3.30
2022-12-16T02:39:56.733Z,4.00
2022-12-16T02:40:56.704Z,3.80
2022-12-16T02:41:56.686Z,3.50
2022-12-16T02:42:56.662Z,4.90
2022-12-16T02:46:15.285Z,4.60
2022-12-16T02:47:15.134Z,2.40
2022-12-16T02:48:15.139Z,3.70
2022-12-16T02:49:15.114Z,2.30
2022-12-16T02:50:15.092Z,2.90
2022-12-16T02:51:15.086Z,4.00
2022-12-16T02:52:15.087Z,4.20
2022-12-16T02:53:15.183Z,4.30
2022-12-16T02:54:15.065Z,2.90
2022-12-16T02:55:15.056Z,2.80
2022-12-16T02:56:15.038Z,3.60
2022-12-16T02:57:15.040Z,4.30
2022-12-16T02:58:15.052Z,4.00
2022-12-16T02:59:15.024Z,4.70
2022-12-16T03:00:15.011Z,3.30
2022-12-16T03:02:31.126Z,5.10
2022-12-16T03:03:24.324Z,4.20
2022-12-16T03:04:24.216Z,3.60
2022-12-16T03:05:24.205Z,2.80
2022-12-16T03:06:24.195Z,4.10
2022-12-16T03:07:24.179Z,3.10
2022-12-16T03:08:24.207Z,4.30
2022-12-16T03:09:24.187Z,3.10
2022-12-16T03:10:24.167Z,3.60
2022-12-16T03:11:24.133Z,3.40
2022-12-16T03:12:24.132Z,4.00
2022-12-16T03:13:24.112Z,2.20
2022-12-16T03:14:24.124Z,2.50
2022-12-16T03:15:24.102Z,2.80
2022-12-16T03:16:24.147Z,2.80
2022-12-16T03:19:42.544Z,8.50
2022-12-16T03:20:42.549Z,5.40
2022-12-16T03:21:42.517Z,2.70
2022-12-16T03:22:42.534Z,3.40
2022-12-16T03:23:42.539Z,3.50
2022-12-16T03:24:42.508Z,3.50
2022-12-16T03:25:42.496Z,2.70
2022-12-16T03:26:42.482Z,2.60
2022-12-16T03:27:42.472Z,3.90
2022-12-16T03:28:42.480Z,5.00
2022-12-16T03:29:42.445Z,4.40
2022-12-16T03:30:42.466Z,2.10
2022-12-16T03:31:42.427Z,3.20
2022-12-16T03:32:42.404Z,3.20
2022-12-16T03:36:03.608Z,7.00
2022-12-16T03:37:00.890Z,3.10
2022-12-16T03:38:00.866Z,3.70
2022-12-16T03:39:00.887Z,2.50
2022-12-16T03:40:00.846Z,4.10
2022-12-16T03:41:00.853Z,4.10
2022-12-16T03:42:00.834Z,3.20
2022-12-16T03:43:00.847Z,3.20
2022-12-16T03:44:00.823Z,3.90
2022-12-16T03:45:00.788Z,3.40
2022-12-16T03:46:00.845Z,5.00
2022-12-16T03:47:00.767Z,2.30
2022-12-16T03:48:00.767Z,4.30
2022-12-16T03:49:00.756Z,3.90
2022-12-16T03:50:00.774Z,2.60
2022-12-16T03:53:19.271Z,4.50
2022-12-16T03:54:19.268Z,3.90
2022-12-16T03:55:19.233Z,2.70
2022-12-16T03:56:19.227Z,2.70
2022-12-16T03:57:19.213Z,4.80
2022-12-16T03:58:19.192Z,2.30
2022-12-16T03:59:19.191Z,2.50
2022-12-16T04:00:19.180Z,2.30
2022-12-16T04:01:19.256Z,4.80
2022-12-16T04:02:19.437Z,2.60
2022-12-16T04:03:19.229Z,4.50
2022-12-16T04:04:19.136Z,5.20
2022-12-16T04:05:19.154Z,2.60
2022-12-16T04:06:19.118Z,4.80
2022-12-16T04:07:19.181Z,2.10
2022-12-16T04:09:35.434Z,4.50
2022-12-16T04:10:28.354Z,3.60
2022-12-16T04:11:28.356Z,2.60
2022-12-16T04:12:28.349Z,2.70
2022-12-16T04:13:28.327Z,2.40
2022-12-16T04:14:28.330Z,2.80
2022-12-16T04:15:28.311Z,2.10
2022-12-16T04:16:28.377Z,2.60
2022-12-16T04:17:28.277Z,3.30
2022-12-16T04:18:28.289Z,1.70
2022-12-16T04:19:28.263Z,2.70
2022-12-16T04:20:28.250Z,2.60
2022-12-16T04:21:28.250Z,2.30
2022-12-16T04:22:28.232Z,2.50
2022-12-16T04:23:28.224Z,2.90
2022-12-16T04:26:47.100Z,4.00
2022-12-16T04:27:47.245Z,2.80
2022-12-16T04:28:47.021Z,3.70
2022-12-16T04:29:47.049Z,1.70
2022-12-16T04:30:47.078Z,2.10
2022-12-16T04:31:46.995Z,2.70
2022-12-16T04:32:46.982Z,2.70
2022-12-16T04:33:46.970Z,3.40
2022-12-16T04:34:46.951Z,3.60
2022-12-16T04:35:46.955Z,2.60
2022-12-16T04:36:46.954Z,2.70
2022-12-16T04:37:46.939Z,2.60
2022-12-16T04:38:46.929Z,2.30
2022-12-16T04:39:46.918Z,3.00
2022-12-16T04:40:46.923Z,2.40
2022-12-16T04:43:17.160Z,5.10
2022-12-16T04:43:56.160Z,3.20
2022-12-16T04:44:56.116Z,3.80
2022-12-16T04:45:56.163Z,2.70
2022-12-16T04:46:56.105Z,1.90
2022-12-16T04:47:57.653Z,4.10
2022-12-16T04:48:56.078Z,2.80
2022-12-16T04:49:56.061Z,2.20
2022-12-16T04:50:56.048Z,2.50
2022-12-16T04:51:56.045Z,2.50
2022-12-16T04:52:56.053Z,2.80
2022-12-16T04:53:56.014Z,2.20
2022-12-16T04:54:56.016Z,2.50
2022-12-16T04:56:02.101Z,3.70
2022-12-16T04:56:56.976Z,2.50
2022-12-16T05:00:15.529Z,3.40
2022-12-16T05:01:15.511Z,3.10
2022-12-16T05:02:15.634Z,3.00
2022-12-16T05:03:15.497Z,2.30
2022-12-16T05:04:15.437Z,2.40
2022-12-16T05:05:15.443Z,3.80
2022-12-16T05:06:15.420Z,2.20
2022-12-16T05:07:15.434Z,2.70
2022-12-16T05:08:15.411Z,4.20
2022-12-16T05:09:15.412Z,3.30
2022-12-16T05:10:15.382Z,3.60
2022-12-16T05:11:15.379Z,3.00
2022-12-16T05:12:15.359Z,2.50
2022-12-16T05:13:15.358Z,1.70
2022-12-16T05:14:15.362Z,2.00
2022-12-16T05:15:15.330Z,2.30
2022-12-16T05:16:15.423Z,2.70
2022-12-16T05:17:15.309Z,3.10
2022-12-16T05:18:15.306Z,2.00
2022-12-16T05:19:15.281Z,2.40
2022-12-16T05:20:15.278Z,2.60
2022-12-16T05:21:15.261Z,2.50
2022-12-16T05:22:15.285Z,3.00
2022-12-16T05:23:15.249Z,1.70
2022-12-16T05:24:15.230Z,2.50
2022-12-16T05:25:15.239Z,2.20
2022-12-16T05:26:15.229Z,3.80
2022-12-16T05:27:15.209Z,2.90
2022-12-16T05:28:15.202Z,3.70
2022-12-16T05:29:15.170Z,2.30
2022-12-16T05:30:15.176Z,3.70
2022-12-16T05:32:45.575Z,3.80
2022-12-16T05:33:24.406Z,3.50
2022-12-16T05:34:24.417Z,2.60
2022-12-16T05:35:24.398Z,2.30
2022-12-16T05:36:24.396Z,3.70
2022-12-16T05:37:24.384Z,1.80
2022-12-16T05:38:24.359Z,1.90
2022-12-16T05:39:24.348Z,2.30
2022-12-16T05:40:24.331Z,3.60
2022-12-16T05:41:24.328Z,2.60
2022-12-16T05:42:24.319Z,3.30
2022-12-16T05:43:24.313Z,3.90
2022-12-16T05:44:24.308Z,3.90
2022-12-16T05:45:24.283Z,2.40
2022-12-16T05:46:24.401Z,3.20
2022-12-16T05:47:24.331Z,2.80
2022-12-16T05:48:24.302Z,3.30
2022-12-16T05:49:24.234Z,3.80
2022-12-16T05:50:24.250Z,2.40
2022-12-16T05:51:24.211Z,2.60
2022-12-16T05:52:24.214Z,3.40
2022-12-16T05:53:24.214Z,4.40
2022-12-16T05:54:24.212Z,2.20
2022-12-16T05:55:27.838Z,2.10
2022-12-16T05:56:25.175Z,3.30
2022-12-16T05:57:24.163Z,3.40
2022-12-16T05:58:24.137Z,3.40
2022-12-16T05:59:24.137Z,2.00
2022-12-16T06:00:24.138Z,2.20
2022-12-16T06:01:24.215Z,1.80
2022-12-16T06:02:24.302Z,2.70
2022-12-16T06:03:24.227Z,3.60
2022-12-16T06:04:24.177Z,2.30
2022-12-16T06:05:24.098Z,2.90
2022-12-16T06:06:24.058Z,1.90
2022-12-16T06:07:24.063Z,2.10
2022-12-16T06:08:24.060Z,2.50
2022-12-16T06:09:24.041Z,2.80
2022-12-16T06:10:24.036Z,2.50
2022-12-16T06:11:24.038Z,3.30
2022-12-16T06:12:24.015Z,3.10
2022-12-16T06:13:23.998Z,2.80
2022-12-16T06:14:23.969Z,3.10
2022-12-16T06:15:23.979Z,2.40
2022-12-16T06:16:23.985Z,1.60
2022-12-16T06:17:23.942Z,2.40
2022-12-16T06:18:23.944Z,2.30
2022-12-16T06:19:23.916Z,3.00
2022-12-16T06:20:23.957Z,2.50
2022-12-16T06:21:23.928Z,3.00
2022-12-16T06:22:23.920Z,1.80
2022-12-16T06:23:25.531Z,3.40
2022-12-16T06:24:23.885Z,2.30
2022-12-16T06:25:23.884Z,3.00
2022-12-16T06:26:23.865Z,2.40
2022-12-16T06:27:23.871Z,2.30
2022-12-16T06:28:23.838Z,2.50
2022-12-16T06:29:23.809Z,3.20
2022-12-16T06:30:23.818Z,2.00
2022-12-16T06:31:23.850Z,1.90
2022-12-16T06:32:23.788Z,2.00
2022-12-16T06:33:23.832Z,3.30
2022-12-16T06:34:23.774Z,2.90
2022-12-16T06:35:31.638Z,1.60
2022-12-16T06:36:23.733Z,2.20
2022-12-16T06:37:23.739Z,2.90
2022-12-16T06:38:23.708Z,2.60
2022-12-16T06:39:23.716Z,3.30
2022-12-16T06:40:23.720Z,2.40
2022-12-16T06:41:23.689Z,2.50
2022-12-16T06:42:23.674Z,3.10
2022-12-16T06:43:23.692Z,2.90
2022-12-16T06:44:23.665Z,2.30
2022-12-16T06:45:23.708Z,1.50
2022-12-16T06:46:23.721Z,2.20
2022-12-16T06:47:23.626Z,2.10
2022-12-16T06:48:23.622Z,2.10
2022-12-16T06:49:23.634Z,2.50
2022-12-16T06:50:23.583Z,2.70
2022-12-16T06:51:23.593Z,4.10
2022-12-16T06:52:23.558Z,1.60
2022-12-16T06:53:23.734Z,1.60
2022-12-16T06:54:23.539Z,2.30
2022-12-16T06:55:23.555Z,2.10
2022-12-16T06:56:23.532Z,2.20
2022-12-16T06:57:23.499Z,2.90
2022-12-16T06:58:23.513Z,1.70
2022-12-16T06:59:23.508Z,3.00
2022-12-16T07:00:23.473Z,2.50
2022-12-16T07:01:23.663Z,2.00
2022-12-16T07:02:23.657Z,3.40
2022-12-16T07:03:23.452Z,1.90
2022-12-16T07:04:23.447Z,2.10
2022-12-16T07:05:23.475Z,1.70
2022-12-16T07:06:23.454Z,2.70
2022-12-16T07:07:23.442Z,2.00
2022-12-16T07:08:23.466Z,2.30
2022-12-16T07:09:23.386Z,3.20
2022-12-16T07:10:23.430Z,2.10
2022-12-16T07:11:23.398Z,2.40
2022-12-16T07:12:23.363Z,1.90
2022-12-16T07:13:23.363Z,3.50
2022-12-16T07:14:24.223Z,2.80
2022-12-16T07:15:23.325Z,2.90
2022-12-16T07:16:23.398Z,3.10
2022-12-16T07:17:23.300Z,2.50
2022-12-16T07:18:23.304Z,3.30
2022-12-16T07:19:23.445Z,2.80
2022-12-16T07:20:23.271Z,3.40
2022-12-16T07:21:23.286Z,3.20
2022-12-16T07:22:24.157Z,2.70
2022-12-16T07:23:23.351Z,2.60
2022-12-16T07:24:23.231Z,3.20
2022-12-16T07:25:23.252Z,3.20
2022-12-16T07:26:23.204Z,2.80
2022-12-16T07:27:23.224Z,2.30
2022-12-16T07:28:23.183Z,2.80
2022-12-16T07:29:23.168Z,2.60
2022-12-16T07:30:23.198Z,2.90
2022-12-16T07:31:23.208Z,2.40
2022-12-16T07:32:23.162Z,2.40
2022-12-16T07:33:23.134Z,2.30
2022-12-16T07:34:23.114Z,1.10
2022-12-16T07:35:23.128Z,2.60
2022-12-16T07:36:23.130Z,1.60
2022-12-16T07:37:23.084Z,2.60
2022-12-16T07:38:23.090Z,2.60
2022-12-16T07:39:23.075Z,2.90
2022-12-16T07:40:23.100Z,3.20
2022-12-16T07:41:23.054Z,2.80
2022-12-16T07:42:23.032Z,2.50
2022-12-16T07:43:23.066Z,1.70
2022-12-16T07:44:23.033Z,1.50
2022-12-16T07:45:23.007Z,1.90
2022-12-16T07:46:23.056Z,2.10
2022-12-16T07:47:23.083Z,2.50
2022-12-16T07:48:23.023Z,3.20
2022-12-16T07:49:22.972Z,2.80
2022-12-16T07:50:23.002Z,3.00
2022-12-16T07:51:22.954Z,2.10
2022-12-16T07:52:22.911Z,2.00
2022-12-16T07:53:24.563Z,3.00
2022-12-16T07:54:22.913Z,2.50
2022-12-16T07:55:22.997Z,1.90
2022-12-16T07:56:22.881Z,2.00
2022-12-16T07:57:22.859Z,3.90
2022-12-16T07:58:22.845Z,2.60
2022-12-16T07:59:22.854Z,2.00
2022-12-16T08:00:22.835Z,2.30
2022-12-16T08:01:23.088Z,2.20
2022-12-16T08:02:23.046Z,2.50
2022-12-16T08:03:22.931Z,4.10
2022-12-16T08:04:22.821Z,2.30
2022-12-16T08:05:22.783Z,1.50
2022-12-16T08:06:22.760Z,1.80
2022-12-16T08:07:22.887Z,1.90
2022-12-16T08:08:22.772Z,2.50
2022-12-16T08:09:22.789Z,1.70
2022-12-16T08:10:22.736Z,1.50
2022-12-16T08:11:22.749Z,2.10
2022-12-16T08:12:22.731Z,2.00
2022-12-16T08:13:25.943Z,2.60
2022-12-16T08:14:22.735Z,3.00
2022-12-16T08:15:22.661Z,2.00
2022-12-16T08:16:22.797Z,2.60
2022-12-16T08:17:22.656Z,3.80
2022-12-16T08:18:22.648Z,2.90
2022-12-16T08:19:22.648Z,2.80
2022-12-16T08:20:22.621Z,2.00
2022-12-16T08:21:22.610Z,2.40
2022-12-16T08:22:22.622Z,4.40
2022-12-16T08:23:22.604Z,2.90
2022-12-16T08:24:22.563Z,2.90
2022-12-16T08:25:22.579Z,2.20
2022-12-16T08:26:22.594Z,2.80
2022-12-16T08:27:22.576Z,3.20
2022-12-16T08:28:22.542Z,3.50
2022-12-16T08:29:47.574Z,2.60
2022-12-16T08:30:23.517Z,1.80
2022-12-16T08:31:22.540Z,2.50
2022-12-16T08:32:22.508Z,3.80
2022-12-16T08:33:22.469Z,3.80
2022-12-16T08:34:22.465Z,3.40
2022-12-16T08:35:22.540Z,3.00
2022-12-16T08:36:22.531Z,2.40
2022-12-16T08:37:22.452Z,1.90
2022-12-16T08:38:23.206Z,2.60
2022-12-16T08:39:22.415Z,3.60
2022-12-16T08:41:23.416Z,2.20
2022-12-16T08:42:22.385Z,2.60
2022-12-16T08:43:22.431Z,3.00
2022-12-16T08:44:22.377Z,2.80
2022-12-16T08:45:22.364Z,2.60
2022-12-16T08:46:22.421Z,2.10
2022-12-16T08:47:22.344Z,3.90
2022-12-16T08:48:22.353Z,2.30
2022-12-16T08:49:22.354Z,4.00
2022-12-16T08:50:22.279Z,3.60
2022-12-16T08:51:22.293Z,3.60
2022-12-16T08:52:22.343Z,4.00
2022-12-16T08:53:22.249Z,2.90
2022-12-16T08:54:22.256Z,2.40
2022-12-16T08:55:27.675Z,2.90
2022-12-16T08:56:23.232Z,3.10
2022-12-16T08:57:22.224Z,3.10
2022-12-16T08:58:22.216Z,2.60
2022-12-16T08:59:22.210Z,2.90
2022-12-16T09:00:22.192Z,2.40
2022-12-16T09:01:22.282Z,3.20
2022-12-16T09:02:22.457Z,3.30
2022-12-16T09:03:22.257Z,3.50
2022-12-16T09:04:22.324Z,3.50
2022-12-16T09:05:22.145Z,3.10
2022-12-16T09:06:22.125Z,3.30
2022-12-16T09:07:22.110Z,3.60
2022-12-16T09:08:22.135Z,2.60
2022-12-16T09:09:22.103Z,3.80
2022-12-16T09:10:22.065Z,3.30
2022-12-16T09:11:22.059Z,4.00
2022-12-16T09:12:22.057Z,3.40
2022-12-16T09:13:22.092Z,4.70
2022-12-16T09:14:22.038Z,4.00
2022-12-16T09:15:22.070Z,4.70
2022-12-16T09:16:22.451Z,3.50
2022-12-16T09:17:21.999Z,3.30
2022-12-16T09:18:22.048Z,3.70
2022-12-16T09:19:21.977Z,4.60
2022-12-16T09:20:21.981Z,5.10
2022-12-16T09:21:22.618Z,3.00
2022-12-16T09:22:21.932Z,3.50
2022-12-16T09:23:21.951Z,4.20
2022-12-16T09:24:21.956Z,3.10
2022-12-16T09:25:21.990Z,4.40
2022-12-16T09:26:22.009Z,3.80
2022-12-16T09:27:21.890Z,4.70
2022-12-16T09:28:21.960Z,5.30
2022-12-16T09:29:22.033Z,5.10
2022-12-16T09:30:21.867Z,5.60
2022-12-16T09:31:22.041Z,4.70
2022-12-16T09:32:21.826Z,5.90
2022-12-16T09:33:21.870Z,6.10
2022-12-16T09:34:22.643Z,4.40
2022-12-16T09:35:21.801Z,5.10
2022-12-16T09:36:21.790Z,5.70
2022-12-16T09:37:21.794Z,5.60
2022-12-16T09:38:22.823Z,5.60
2022-12-16T09:39:21.771Z,4.20
2022-12-16T09:40:21.735Z,5.70
2022-12-16T09:41:21.827Z,6.30
2022-12-16T09:42:21.844Z,5.30
2022-12-16T09:43:21.740Z,5.40
2022-12-16T09:44:21.773Z,6.20
2022-12-16T09:45:21.747Z,4.60
2022-12-16T09:46:21.738Z,5.10
2022-12-16T09:47:21.746Z,4.00
2022-12-16T09:48:21.678Z,5.60
2022-12-16T09:49:22.171Z,5.50
2022-12-16T09:50:21.679Z,5.10
2022-12-16T09:51:21.637Z,5.50
2022-12-16T09:52:21.675Z,6.00
2022-12-16T09:53:21.623Z,5.40
2022-12-16T09:54:21.762Z,5.20
2022-12-16T09:55:21.787Z,5.70
2022-12-16T09:56:21.583Z,5.50
2022-12-16T09:57:21.587Z,6.10
2022-12-16T09:58:21.556Z,5.80
2022-12-16T09:59:22.250Z,6.20
2022-12-16T10:00:21.515Z,6.30
2022-12-16T10:01:21.685Z,5.20
2022-12-16T10:02:21.751Z,5.40
2022-12-16T10:03:21.848Z,6.40
2022-12-16T10:04:21.604Z,5.40
2022-12-16T10:05:21.649Z,5.90
2022-12-16T10:06:21.522Z,6.10
2022-12-16T10:07:21.478Z,5.20
2022-12-16T10:08:21.443Z,4.70
2022-12-16T10:09:21.459Z,5.40
2022-12-16T10:10:21.450Z,5.80
2022-12-16T10:11:22.163Z,5.40
2022-12-16T10:12:21.420Z,6.70
2022-12-16T10:13:21.393Z,5.60
2022-12-16T10:14:21.376Z,4.50
2022-12-16T10:15:21.390Z,4.80
2022-12-16T10:16:21.485Z,6.00
2022-12-16T10:17:21.350Z,6.00
2022-12-16T10:18:21.456Z,4.10
2022-12-16T10:19:21.391Z,4.80
2022-12-16T10:20:21.495Z,5.00
2022-12-16T10:21:21.392Z,6.20
2022-12-16T10:22:21.308Z,6.00
2022-12-16T10:23:21.359Z,4.40
2022-12-16T10:24:21.328Z,5.00
2022-12-16T10:25:25.012Z,6.60
2022-12-16T10:26:21.298Z,5.60
2022-12-16T10:27:21.263Z,5.10
2022-12-16T10:28:21.253Z,5.60
2022-12-16T10:29:21.237Z,6.20
2022-12-16T10:30:21.275Z,5.90
2022-12-16T10:31:21.289Z,5.70
2022-12-16T10:32:21.226Z,7.30
2022-12-16T10:33:21.156Z,5.50
2022-12-16T10:34:21.171Z,6.00
2022-12-16T10:35:21.218Z,6.70
2022-12-16T10:36:21.124Z,6.50
2022-12-16T10:37:21.471Z,6.20
2022-12-16T10:38:21.125Z,5.90
2022-12-16T10:39:21.110Z,5.70
2022-12-16T10:40:21.265Z,4.50
2022-12-16T10:41:21.098Z,4.70
2022-12-16T10:42:21.110Z,5.10
2022-12-16T10:43:22.721Z,5.10
2022-12-16T10:44:21.065Z,5.70
2022-12-16T10:45:21.057Z,4.40
2022-12-16T10:46:21.107Z,5.40
2022-12-16T10:47:21.053Z,4.80
2022-12-16T10:48:21.009Z,5.20
2022-12-16T10:49:21.094Z,5.30
2022-12-16T10:50:21.101Z,4.90
2022-12-16T10:51:21.073Z,5.50
2022-12-16T10:52:20.981Z,6.20
2022-12-16T10:53:20.964Z,5.50
2022-12-16T10:54:20.946Z,4.30
2022-12-16T10:55:20.992Z,5.40
2022-12-16T10:56:20.970Z,5.40
2022-12-16T10:57:20.927Z,4.40
2022-12-16T10:58:20.903Z,5.80
2022-12-16T10:59:20.907Z,4.50
2022-12-16T11:00:20.888Z,6.00
2022-12-16T11:01:20.997Z,5.50
2022-12-16T11:02:21.096Z,4.60
2022-12-16T11:03:21.189Z,4.50
2022-12-16T11:04:20.903Z,4.70
2022-12-16T11:05:20.825Z,4.90
2022-12-16T11:06:20.800Z,4.90
2022-12-16T11:07:20.820Z,4.90
2022-12-16T11:08:20.768Z,5.70
2022-12-16T11:09:20.755Z,6.00
2022-12-16T11:10:23.084Z,4.90
2022-12-16T11:11:20.766Z,5.00
2022-12-16T11:12:20.740Z,4.80
2022-12-16T11:13:20.720Z,5.30
2022-12-16T11:14:20.701Z,5.30
2022-12-16T11:15:29.182Z,4.90
2022-12-16T11:16:21.761Z,5.10
2022-12-16T11:17:20.709Z,5.40
2022-12-16T11:18:20.705Z,5.00
2022-12-16T11:19:20.670Z,5.70
2022-12-16T11:20:20.690Z,4.20
2022-12-16T11:21:20.664Z,6.10
2022-12-16T11:22:20.629Z,6.20
2022-12-16T11:23:20.746Z,4.70
2022-12-16T11:24:20.619Z,5.60
2022-12-16T11:25:20.596Z,4.90
2022-12-16T11:26:20.585Z,6.30
2022-12-16T11:27:20.591Z,5.40
2022-12-16T11:28:20.748Z,4.80
2022-12-16T11:29:20.556Z,6.20
2022-12-16T11:30:20.528Z,6.90
2022-12-16T11:31:20.648Z,7.60
2022-12-16T11:32:20.530Z,5.20
2022-12-16T11:33:20.492Z,6.70
2022-12-16T11:34:20.532Z,7.30
2022-12-16T11:35:20.493Z,6.60
2022-12-16T11:36:20.473Z,6.40
2022-12-16T11:37:21.214Z,7.50
2022-12-16T11:38:20.535Z,7.30
2022-12-16T11:39:20.501Z,6.20
2022-12-16T11:40:20.431Z,6.40
2022-12-16T11:41:20.409Z,6.60
2022-12-16T11:42:20.718Z,5.70
2022-12-16T11:43:20.505Z,6.40
2022-12-16T11:44:20.408Z,5.70
2022-12-16T11:45:20.555Z,6.10
2022-12-16T11:46:20.424Z,7.40
2022-12-16T11:47:20.331Z,6.40
2022-12-16T11:48:20.339Z,5.90
2022-12-16T11:49:25.014Z,7.10
2022-12-16T11:50:21.334Z,5.20
2022-12-16T11:51:20.309Z,6.70
2022-12-16T11:52:36.336Z,7.40
2022-12-16T11:53:21.266Z,7.00
2022-12-16T11:54:20.278Z,6.60
2022-12-16T11:55:31.489Z,5.70
2022-12-16T11:56:21.326Z,8.00
2022-12-16T11:57:20.225Z,6.70
2022-12-16T11:58:20.258Z,6.50
2022-12-16T11:59:20.263Z,6.50
2022-12-16T12:00:20.219Z,6.00
2022-12-16T12:01:20.272Z,6.00
2022-12-16T12:02:20.365Z,7.00
2022-12-16T12:03:20.415Z,6.40
2022-12-16T12:04:20.211Z,6.80
2022-12-16T12:05:21.091Z,5.40
2022-12-16T12:06:20.842Z,6.90
2022-12-16T12:07:20.123Z,8.10
2022-12-16T12:08:20.139Z,6.60
2022-12-16T12:09:20.114Z,6.50
2022-12-16T12:10:20.113Z,7.00
2022-12-16T12:11:20.143Z,7.00
2022-12-16T12:12:20.089Z,6.70
2022-12-16T12:13:20.087Z,7.20
2022-12-16T12:14:20.057Z,6.50
2022-12-16T12:15:20.050Z,6.20
2022-12-16T12:16:20.098Z,6.90
2022-12-16T12:17:20.020Z,6.40
2022-12-16T12:18:20.012Z,6.40
2022-12-16T12:19:20.040Z,6.50
2022-12-16T12:20:19.986Z,7.40
2022-12-16T12:21:20.048Z,6.40
2022-12-16T12:22:19.982Z,6.90
2022-12-16T12:23:19.959Z,8.80
2022-12-16T12:24:19.953Z,8.60
2022-12-16T12:25:19.951Z,8.80
2022-12-16T12:26:19.919Z,8.80
2022-12-16T12:27:19.971Z,5.80
2022-12-16T12:28:19.925Z,7.80
2022-12-16T12:29:19.886Z,7.20
2022-12-16T12:30:19.874Z,7.10
2022-12-16T12:31:19.878Z,6.50
2022-12-16T12:32:20.281Z,7.70
2022-12-16T12:33:19.839Z,9.30
2022-12-16T12:34:20.124Z,9.30
2022-12-16T12:35:19.838Z,6.30
2022-12-16T12:36:19.855Z,6.10
2022-12-16T12:37:19.812Z,6.10
2022-12-16T12:38:19.806Z,5.70
2022-12-16T12:39:19.776Z,6.90
2022-12-16T12:40:19.745Z,6.70
2022-12-16T12:41:19.875Z,6.60
2022-12-16T12:42:19.754Z,6.60
2022-12-16T12:43:19.774Z,5.90
2022-12-16T12:44:19.713Z,7.60
2022-12-16T12:45:19.721Z,8.30
2022-12-16T12:46:19.779Z,8.10
2022-12-16T12:47:19.690Z,8.00
2022-12-16T12:48:19.675Z,6.50
2022-12-16T12:49:19.657Z,8.10
2022-12-16T12:50:19.690Z,6.50
2022-12-16T12:51:19.670Z,6.30
2022-12-16T12:52:19.627Z,8.20
2022-12-16T12:53:19.619Z,8.40
2022-12-16T12:54:19.604Z,8.10
2022-12-16T12:55:19.601Z,8.70
2022-12-16T12:56:19.610Z,7.10
2022-12-16T12:57:19.607Z,6.60
2022-12-16T12:58:19.558Z,6.90
2022-12-16T12:59:19.560Z,7.30
2022-12-16T13:00:19.540Z,7.60
2022-12-16T13:01:19.612Z,7.70
2022-12-16T13:02:20.249Z,7.90
2022-12-16T13:03:19.665Z,8.50
2022-12-16T13:04:19.501Z,7.80
2022-12-16T13:05:24.195Z,7.40
2022-12-16T13:06:20.502Z,8.20
2022-12-16T13:07:19.484Z,8.60
2022-12-16T13:08:19.435Z,8.90
2022-12-16T13:09:19.481Z,9.60
2022-12-16T13:10:19.450Z,9.50
2022-12-16T13:11:19.437Z,8.80
2022-12-16T13:12:19.394Z,8.20
2022-12-16T13:13:19.388Z,8.30
2022-12-16T13:14:19.431Z,8.30
2022-12-16T13:15:19.423Z,8.70
2022-12-16T13:16:19.510Z,8.40
2022-12-16T13:17:25.154Z,8.90
2022-12-16T13:18:20.354Z,8.10
2022-12-16T13:19:19.319Z,9.70
2022-12-16T13:20:19.354Z,8.90
2022-12-16T13:21:19.308Z,9.20
2022-12-16T13:22:19.304Z,7.90
2022-12-16T13:23:19.263Z,9.10
2022-12-16T13:24:19.301Z,9.00
2022-12-16T13:25:23.792Z,10.10
2022-12-16T13:26:19.262Z,8.90
2022-12-16T13:27:19.231Z,8.60
2022-12-16T13:28:19.279Z,8.90
2022-12-16T13:29:19.244Z,9.50
2022-12-16T13:30:19.215Z,8.80
2022-12-16T13:31:24.975Z,8.20
2022-12-16T13:32:21.110Z,8.60
2022-12-16T13:33:19.152Z,9.00
2022-12-16T13:34:19.190Z,8.30
2022-12-16T13:35:19.150Z,9.30
2022-12-16T13:36:19.154Z,8.50
2022-12-16T13:37:25.735Z,9.10
2022-12-16T13:38:20.184Z,8.70
2022-12-16T13:39:19.121Z,10.10
2022-12-16T13:40:19.117Z,10.00
2022-12-16T13:41:19.073Z,9.10
2022-12-16T13:42:19.067Z,9.50
2022-12-16T13:43:23.505Z,9.70